createdAt,value
2018-02-24T00:00:35.230Z,1021.13
2018-02-24T00:01:35.236Z,1021.15
2018-02-24T00:02:35.244Z,1021.14
2018-02-24T00:03:35.239Z,1021.16
2018-02-24T00:04:35.224Z,1021.17
2018-02-24T00:05:35.226Z,1021.15
2018-02-24T00:06:35.231Z,1021.18
2018-02-24T00:07:35.262Z,1021.18
2018-02-24T00:08:35.231Z,1021.17
2018-02-24T00:09:35.242Z,1021.1
2018-02-24T00:10:35.228Z,1021.13
2018-02-24T00:11:35.246Z,1021.16
2018-02-24T00:12:35.230Z,1021.14
2018-02-24T00:13:35.227Z,1021.15
2018-02-24T00:14:35.417Z,1021.18
2018-02-24T00:15:35.240Z,1021.16
2018-02-24T00:16:35.219Z,1021.11
2018-02-24T00:17:35.250Z,1021.16
2018-02-24T00:18:35.234Z,1021.12
2018-02-24T00:19:35.217Z,1021.13
2018-02-24T00:20:35.233Z,1021.15
2018-02-24T00:21:35.238Z,1021.15
2018-02-24T00:22:35.224Z,1021.13
2018-02-24T00:23:35.230Z,1021.15
2018-02-24T00:24:35.232Z,1021.09
2018-02-24T00:25:35.214Z,1021.11
2018-02-24T00:26:35.506Z,1021.1
2018-02-24T00:27:35.250Z,1021.13
2018-02-24T00:28:35.212Z,1021.12
2018-02-24T00:29:35.214Z,1021.11
2018-02-24T00:30:35.261Z,1021.14
2018-02-24T00:31:35.240Z,1021.21
2018-02-24T00:32:35.227Z,1021.2
2018-02-24T00:33:35.214Z,1021.21
2018-02-24T00:34:35.225Z,1021.17
2018-02-24T00:35:35.221Z,1021.16
2018-02-24T00:36:35.216Z,1021.2
2018-02-24T00:37:35.214Z,1021.17
2018-02-24T00:38:35.217Z,1021.16
2018-02-24T00:39:35.230Z,1021.18
2018-02-24T00:40:35.213Z,1021.21
2018-02-24T00:41:35.232Z,1021.25
2018-02-24T00:42:35.214Z,1021.21
2018-02-24T00:43:35.220Z,1021.18
2018-02-24T00:44:35.233Z,1021.23
2018-02-24T00:45:35.212Z,1021.23
2018-02-24T00:46:35.220Z,1021.21
2018-02-24T00:47:35.210Z,1021.23
2018-02-24T00:48:35.217Z,1021.23
2018-02-24T00:49:35.224Z,1021.26
2018-02-24T00:50:35.199Z,1021.27
2018-02-24T00:51:35.215Z,1021.27
2018-02-24T00:52:35.216Z,1021.31
2018-02-24T00:53:35.211Z,1021.26
2018-02-24T00:54:35.585Z,1021.26
2018-02-24T00:55:35.206Z,1021.28
2018-02-24T00:56:35.225Z,1021.31
2018-02-24T00:57:35.310Z,1021.34
2018-02-24T00:58:35.215Z,1021.33
2018-02-24T00:59:35.225Z,1021.4
2018-02-24T01:00:35.204Z,1021.41
2018-02-24T01:01:35.229Z,1021.42
2018-02-24T01:02:35.214Z,1021.44
2018-02-24T01:03:35.220Z,1021.43
2018-02-24T01:04:35.244Z,1021.48
2018-02-24T01:05:35.499Z,1021.49
2018-02-24T01:06:35.209Z,1021.53
2018-02-24T01:07:35.201Z,1021.52
2018-02-24T01:08:35.208Z,1021.51
2018-02-24T01:09:35.224Z,1021.49
2018-02-24T01:10:35.217Z,1021.52
2018-02-24T01:11:35.221Z,1021.5
2018-02-24T01:12:35.207Z,1021.45
2018-02-24T01:13:35.308Z,1021.46
2018-02-24T01:14:35.234Z,1021.49
2018-02-24T01:15:35.207Z,1021.49
2018-02-24T01:16:35.214Z,1021.49
2018-02-24T01:17:35.258Z,1021.56
2018-02-24T01:18:35.203Z,1021.54
2018-02-24T01:19:35.290Z,1021.49
2018-02-24T01:20:35.204Z,1021.49
2018-02-24T01:21:35.193Z,1021.51
2018-02-24T01:22:35.198Z,1021.53
2018-02-24T01:23:35.209Z,1021.53
2018-02-24T01:24:35.221Z,1021.56
2018-02-24T01:25:35.196Z,1021.51
2018-02-24T01:26:35.230Z,1021.5
2018-02-24T01:27:35.202Z,1021.47
2018-02-24T01:28:35.204Z,1021.48
2018-02-24T01:29:35.198Z,1021.47
2018-02-24T01:30:35.194Z,1021.48
2018-02-24T01:31:35.248Z,1021.49
2018-02-24T01:32:35.191Z,1021.46
2018-02-24T01:33:35.197Z,1021.46
2018-02-24T01:34:35.199Z,1021.5
2018-02-24T01:35:35.205Z,1021.5
2018-02-24T01:36:35.193Z,1021.54
2018-02-24T01:37:35.260Z,1021.5
2018-02-24T01:38:35.212Z,1021.47
2018-02-24T01:39:35.187Z,1021.51
2018-02-24T01:40:35.210Z,1021.49
2018-02-24T01:41:35.196Z,1021.49
2018-02-24T01:42:35.204Z,1021.42
2018-02-24T01:43:35.198Z,1021.48
2018-02-24T01:44:35.189Z,1021.47
2018-02-24T01:45:35.210Z,1021.45
2018-02-24T01:46:35.206Z,1021.5
2018-02-24T01:47:35.194Z,1021.46
2018-02-24T01:48:35.188Z,1021.47
2018-02-24T01:49:35.198Z,1021.46
2018-02-24T01:50:35.186Z,1021.48
2018-02-24T01:51:35.222Z,1021.49
2018-02-24T01:52:35.195Z,1021.44
2018-02-24T01:53:35.197Z,1021.41
2018-02-24T01:54:35.319Z,1021.38
2018-02-24T01:55:35.275Z,1021.39
2018-02-24T01:56:35.457Z,1021.36
2018-02-24T01:57:35.190Z,1021.36
2018-02-24T01:58:35.183Z,1021.41
2018-02-24T01:59:35.183Z,1021.42
2018-02-24T02:00:35.192Z,1021.44
2018-02-24T02:01:35.210Z,1021.45
2018-02-24T02:02:35.195Z,1021.49
2018-02-24T02:03:35.202Z,1021.54
2018-02-24T02:04:35.197Z,1021.52
2018-02-24T02:05:35.181Z,1021.48
2018-02-24T02:06:35.183Z,1021.48
2018-02-24T02:07:35.185Z,1021.48
2018-02-24T02:08:35.185Z,1021.5
2018-02-24T02:09:35.173Z,1021.53
2018-02-24T02:10:35.208Z,1021.46
2018-02-24T02:11:35.186Z,1021.5
2018-02-24T02:12:35.205Z,1021.48
2018-02-24T02:13:35.201Z,1021.5
2018-02-24T02:14:35.184Z,1021.4
2018-02-24T02:15:35.177Z,1021.41
2018-02-24T02:16:35.172Z,1021.38
2018-02-24T02:17:35.188Z,1021.39
2018-02-24T02:18:35.187Z,1021.38
2018-02-24T02:19:35.184Z,1021.4
2018-02-24T02:20:35.182Z,1021.39
2018-02-24T02:21:35.187Z,1021.33
2018-02-24T02:22:35.465Z,1021.29
2018-02-24T02:23:35.197Z,1021.34
2018-02-24T02:24:35.178Z,1021.35
2018-02-24T02:25:35.177Z,1021.35
2018-02-24T02:26:35.196Z,1021.36
2018-02-24T02:27:35.200Z,1021.38
2018-02-24T02:28:35.195Z,1021.34
2018-02-24T02:29:35.197Z,1021.34
2018-02-24T02:30:35.173Z,1021.34
2018-02-24T02:31:35.193Z,1021.38
2018-02-24T02:32:35.225Z,1021.36
2018-02-24T02:33:35.180Z,1021.39
2018-02-24T02:34:35.189Z,1021.37
2018-02-24T02:35:35.176Z,1021.38
2018-02-24T02:36:35.173Z,1021.44
2018-02-24T02:37:35.266Z,1021.42
2018-02-24T02:38:35.181Z,1021.39
2018-02-24T02:39:35.178Z,1021.47
2018-02-24T02:40:35.166Z,1021.42
2018-02-24T02:41:35.182Z,1021.43
2018-02-24T02:42:35.184Z,1021.49
2018-02-24T02:43:35.212Z,1021.45
2018-02-24T02:44:35.184Z,1021.45
2018-02-24T02:45:35.164Z,1021.39
2018-02-24T02:46:35.162Z,1021.42
2018-02-24T02:47:35.191Z,1021.35
2018-02-24T02:48:35.462Z,1021.34
2018-02-24T02:49:35.178Z,1021.32
2018-02-24T02:50:35.175Z,1021.35
2018-02-24T02:51:35.184Z,1021.37
2018-02-24T02:52:35.185Z,1021.37
2018-02-24T02:53:35.207Z,1021.3
2018-02-24T02:54:35.166Z,1021.29
2018-02-24T02:55:35.172Z,1021.29
2018-02-24T02:56:35.173Z,1021.37
2018-02-24T02:57:35.165Z,1021.41
2018-02-24T02:58:35.192Z,1021.37
2018-02-24T02:59:35.177Z,1021.33
2018-02-24T03:00:35.173Z,1021.31
2018-02-24T03:01:35.163Z,1021.32
2018-02-24T03:02:35.151Z,1021.29
2018-02-24T03:03:35.282Z,1021.3
2018-02-24T03:04:35.175Z,1021.28
2018-02-24T03:05:35.161Z,1021.3
2018-02-24T03:06:35.181Z,1021.33
2018-02-24T03:07:35.167Z,1021.26
2018-02-24T03:08:35.196Z,1021.29
2018-02-24T03:09:35.154Z,1021.24
2018-02-24T03:10:35.170Z,1021.32
2018-02-24T03:11:35.180Z,1021.29
2018-02-24T03:12:35.175Z,1021.34
2018-02-24T03:13:35.198Z,1021.44
2018-02-24T03:14:35.174Z,1021.43
2018-02-24T03:15:35.201Z,1021.39
2018-02-24T03:16:35.174Z,1021.44
2018-02-24T03:17:35.193Z,1021.42
2018-02-24T03:18:35.157Z,1021.47
2018-02-24T03:19:35.375Z,1021.43
2018-02-24T03:20:35.160Z,1021.42
2018-02-24T03:21:35.168Z,1021.45
2018-02-24T03:22:35.147Z,1021.47
2018-02-24T03:23:35.152Z,1021.45
2018-02-24T03:24:35.164Z,1021.44
2018-02-24T03:25:35.157Z,1021.41
2018-02-24T03:26:35.159Z,1021.42
2018-02-24T03:27:35.157Z,1021.41
2018-02-24T03:28:35.145Z,1021.41
2018-02-24T03:29:35.191Z,1021.39
2018-02-24T03:30:35.181Z,1021.45
2018-02-24T03:31:35.351Z,1021.43
2018-02-24T03:32:35.173Z,1021.37
2018-02-24T03:33:35.160Z,1021.43
2018-02-24T03:34:35.184Z,1021.45
2018-02-24T03:35:35.174Z,1021.49
2018-02-24T03:36:35.155Z,1021.45
2018-02-24T03:37:35.135Z,1021.46
2018-02-24T03:38:35.144Z,1021.41
2018-02-24T03:39:35.186Z,1021.47
2018-02-24T03:40:35.178Z,1021.53
2018-02-24T03:41:35.144Z,1021.39
2018-02-24T03:42:35.165Z,1021.5
2018-02-24T03:43:35.149Z,1021.48
2018-02-24T03:44:35.189Z,1021.45
2018-02-24T03:45:35.157Z,1021.49
2018-02-24T03:46:35.427Z,1021.47
2018-02-24T03:47:35.161Z,1021.48
2018-02-24T03:48:35.150Z,1021.48
2018-02-24T03:49:35.144Z,1021.54
2018-02-24T03:50:35.154Z,1021.5
2018-02-24T03:51:35.175Z,1021.54
2018-02-24T03:52:35.139Z,1021.57
2018-02-24T03:53:35.148Z,1021.53
2018-02-24T03:54:35.143Z,1021.58
2018-02-24T03:55:35.236Z,1021.57
2018-02-24T03:56:35.273Z,1021.59
2018-02-24T03:57:35.154Z,1021.65
2018-02-24T03:58:35.156Z,1021.67
2018-02-24T03:59:35.155Z,1021.63
2018-02-24T04:00:35.397Z,1021.62
2018-02-24T04:01:35.131Z,1021.63
2018-02-24T04:02:35.145Z,1021.67
2018-02-24T04:03:35.150Z,1021.69
2018-02-24T04:04:35.146Z,1021.64
2018-02-24T04:05:35.177Z,1021.65
2018-02-24T04:06:35.246Z,1021.71
2018-02-24T04:07:35.141Z,1021.72
2018-02-24T04:08:35.147Z,1021.71
2018-02-24T04:09:35.129Z,1021.77
2018-02-24T04:10:35.180Z,1021.73
2018-02-24T04:11:35.145Z,1021.74
2018-02-24T04:12:35.128Z,1021.75
2018-02-24T04:13:35.139Z,1021.75
2018-02-24T04:14:35.236Z,1021.74
2018-02-24T04:15:35.173Z,1021.74
2018-02-24T04:16:35.372Z,1021.75
2018-02-24T04:17:35.144Z,1021.76
2018-02-24T04:18:35.120Z,1021.81
2018-02-24T04:19:35.157Z,1021.86
2018-02-24T04:20:35.172Z,1021.89
2018-02-24T04:21:35.154Z,1021.88
2018-02-24T04:22:35.239Z,1021.84
2018-02-24T04:23:35.161Z,1021.89
2018-02-24T04:24:35.133Z,1021.86
2018-02-24T04:25:35.180Z,1021.92
2018-02-24T04:26:35.116Z,1021.92
2018-02-24T04:27:35.132Z,1021.88
2018-02-24T04:28:35.143Z,1021.89
2018-02-24T04:29:35.136Z,1021.9
2018-02-24T04:30:35.164Z,1021.93
2018-02-24T04:31:35.136Z,1021.9
2018-02-24T04:32:35.139Z,1021.9
2018-02-24T04:33:35.137Z,1021.98
2018-02-24T04:34:35.140Z,1021.96
2018-02-24T04:35:35.162Z,1021.94
2018-02-24T04:36:35.171Z,1022
2018-02-24T04:37:35.178Z,1022.01
2018-02-24T04:38:35.139Z,1021.96
2018-02-24T04:39:35.129Z,1021.99
2018-02-24T04:40:35.164Z,1021.95
2018-02-24T04:41:35.131Z,1022.06
2018-02-24T04:42:35.145Z,1022
2018-02-24T04:43:35.143Z,1022.02
2018-02-24T04:44:35.174Z,1022.05
2018-02-24T04:45:35.112Z,1022
2018-02-24T04:46:35.141Z,1021.99
2018-02-24T04:47:35.125Z,1022.07
2018-02-24T04:48:35.134Z,1022.04
2018-02-24T04:49:35.126Z,1022.03
2018-02-24T04:50:35.144Z,1022.04
2018-02-24T04:51:35.135Z,1021.94
2018-02-24T04:52:35.127Z,1021.99
2018-02-24T04:53:35.130Z,1021.94
2018-02-24T04:54:35.155Z,1021.89
2018-02-24T04:55:35.133Z,1022
2018-02-24T04:56:35.126Z,1021.88
2018-02-24T04:57:35.157Z,1021.94
2018-02-24T04:58:35.170Z,1021.84
2018-02-24T04:59:35.129Z,1021.98
2018-02-24T05:00:35.118Z,1021.94
2018-02-24T05:01:35.136Z,1022.03
2018-02-24T05:02:35.147Z,1022.04
2018-02-24T05:03:35.134Z,1022.02
2018-02-24T05:04:35.111Z,1022.08
2018-02-24T05:05:35.129Z,1022.06
2018-02-24T05:06:35.125Z,1022.06
2018-02-24T05:07:35.131Z,1022.11
2018-02-24T05:08:35.130Z,1022.14
2018-02-24T05:09:35.128Z,1022.11
2018-02-24T05:10:35.118Z,1022.06
2018-02-24T05:11:35.118Z,1022.13
2018-02-24T05:12:35.112Z,1022.05
2018-02-24T05:13:35.139Z,1022.07
2018-02-24T05:14:35.128Z,1022.09
2018-02-24T05:15:35.139Z,1022.05
2018-02-24T05:16:35.121Z,1022.03
2018-02-24T05:17:35.123Z,1022.04
2018-02-24T05:18:35.118Z,1022.04
2018-02-24T05:19:35.120Z,1022.06
2018-02-24T05:20:35.163Z,1022.04
2018-02-24T05:21:35.131Z,1022.05
2018-02-24T05:22:35.116Z,1022.07
2018-02-24T05:23:35.116Z,1022.07
2018-02-24T05:24:35.114Z,1022.13
2018-02-24T05:25:35.121Z,1022.13
2018-02-24T05:26:35.115Z,1022.14
2018-02-24T05:27:35.439Z,1022.11
2018-02-24T05:28:35.136Z,1022.1
2018-02-24T05:29:35.082Z,1022.19
2018-02-24T05:30:35.118Z,1022.13
2018-02-24T05:31:35.111Z,1022.12
2018-02-24T05:32:35.154Z,1022.15
2018-02-24T05:33:35.106Z,1022.16
2018-02-24T05:34:35.101Z,1022.23
2018-02-24T05:35:35.101Z,1022.2
2018-02-24T05:36:35.125Z,1022.2
2018-02-24T05:37:35.109Z,1022.22
2018-02-24T05:38:35.114Z,1022.19
2018-02-24T05:39:35.107Z,1022.22
2018-02-24T05:40:35.105Z,1022.27
2018-02-24T05:41:35.110Z,1022.26
2018-02-24T05:42:35.120Z,1022.26
2018-02-24T05:43:35.381Z,1022.22
2018-02-24T05:44:35.125Z,1022.31
2018-02-24T05:45:35.122Z,1022.28
2018-02-24T05:46:35.102Z,1022.27
2018-02-24T05:47:35.104Z,1022.28
2018-02-24T05:48:35.132Z,1022.3
2018-02-24T05:49:35.120Z,1022.29
2018-02-24T05:50:35.109Z,1022.29
2018-02-24T05:51:35.163Z,1022.33
2018-02-24T05:52:35.102Z,1022.37
2018-02-24T05:53:35.085Z,1022.37
2018-02-24T05:54:35.124Z,1022.38
2018-02-24T05:55:35.112Z,1022.39
2018-02-24T05:56:35.196Z,1022.47
2018-02-24T05:57:35.241Z,1022.46
2018-02-24T05:58:35.139Z,1022.53
2018-02-24T05:59:35.137Z,1022.5
2018-02-24T06:00:35.115Z,1022.51
2018-02-24T06:01:35.108Z,1022.59
2018-02-24T06:02:35.091Z,1022.58
2018-02-24T06:03:35.109Z,1022.58
2018-02-24T06:04:35.374Z,1022.64
2018-02-24T06:05:35.104Z,1022.64
2018-02-24T06:06:35.101Z,1022.62
2018-02-24T06:07:35.254Z,1022.67
2018-02-24T06:08:35.096Z,1022.65
2018-02-24T06:09:35.135Z,1022.63
2018-02-24T06:10:35.110Z,1022.54
2018-02-24T06:11:35.096Z,1022.61
2018-02-24T06:12:35.102Z,1022.6
2018-02-24T06:13:35.102Z,1022.75
2018-02-24T06:14:35.120Z,1022.61
2018-02-24T06:15:35.090Z,1022.57
2018-02-24T06:16:35.090Z,1022.61
2018-02-24T06:17:35.082Z,1022.6
2018-02-24T06:18:35.115Z,1022.6
2018-02-24T06:19:35.121Z,1022.61
2018-02-24T06:20:35.097Z,1022.58
2018-02-24T06:21:35.093Z,1022.55
2018-02-24T06:22:35.099Z,1022.58
2018-02-24T06:23:35.090Z,1022.59
2018-02-24T06:24:35.121Z,1022.51
2018-02-24T06:25:35.101Z,1022.51
2018-02-24T06:26:35.097Z,1022.58
2018-02-24T06:27:35.071Z,1022.56
2018-02-24T06:28:35.084Z,1022.57
2018-02-24T06:29:35.112Z,1022.57
2018-02-24T06:30:35.088Z,1022.57
2018-02-24T06:31:35.102Z,1022.61
2018-02-24T06:32:35.108Z,1022.58
2018-02-24T06:33:35.101Z,1022.61
2018-02-24T06:34:35.360Z,1022.6
2018-02-24T06:35:35.103Z,1022.59
2018-02-24T06:36:35.080Z,1022.61
2018-02-24T06:37:35.094Z,1022.74
2018-02-24T06:38:35.076Z,1022.72
2018-02-24T06:39:35.257Z,1022.73
2018-02-24T06:40:35.134Z,1022.73
2018-02-24T06:41:35.086Z,1022.76
2018-02-24T06:42:35.095Z,1022.78
2018-02-24T06:43:35.084Z,1022.79
2018-02-24T06:44:35.124Z,1022.75
2018-02-24T06:45:35.132Z,1022.75
2018-02-24T06:46:35.072Z,1022.84
2018-02-24T06:47:35.083Z,1022.86
2018-02-24T06:48:35.084Z,1022.78
2018-02-24T06:49:35.122Z,1022.9
2018-02-24T06:50:35.076Z,1022.9
2018-02-24T06:51:35.074Z,1022.91
2018-02-24T06:52:34.943Z,1022.97
2018-02-24T06:53:35.107Z,1022.97
2018-02-24T06:54:35.110Z,1022.98
2018-02-24T06:55:35.082Z,1023.03
2018-02-24T06:56:35.080Z,1023
2018-02-24T06:57:35.091Z,1023.01
2018-02-24T06:58:35.080Z,1023.05
2018-02-24T06:59:35.382Z,1023.06
2018-02-24T07:00:35.077Z,1023.05
2018-02-24T07:01:35.087Z,1023.07
2018-02-24T07:02:35.081Z,1023.12
2018-02-24T07:03:35.085Z,1023.07
2018-02-24T07:04:35.117Z,1023.13
2018-02-24T07:05:35.086Z,1023.17
2018-02-24T07:06:35.071Z,1023.12
2018-02-24T07:07:35.067Z,1023.12
2018-02-24T07:08:35.067Z,1023.14
2018-02-24T07:09:35.107Z,1023.14
2018-02-24T07:10:35.088Z,1023.13
2018-02-24T07:11:35.063Z,1023.15
2018-02-24T07:12:35.068Z,1023.09
2018-02-24T07:13:35.070Z,1023.15
2018-02-24T07:14:35.157Z,1023.17
2018-02-24T07:15:35.088Z,1023.18
2018-02-24T07:16:35.072Z,1023.14
2018-02-24T07:17:35.083Z,1023.18
2018-02-24T07:18:35.068Z,1023.22
2018-02-24T07:19:35.331Z,1023.19
2018-02-24T07:20:35.109Z,1023.29
2018-02-24T07:21:35.073Z,1023.26
2018-02-24T07:22:35.078Z,1023.29
2018-02-24T07:23:35.173Z,1023.21
2018-02-24T07:24:35.093Z,1023.2
2018-02-24T07:25:35.082Z,1023.25
2018-02-24T07:26:35.069Z,1023.28
2018-02-24T07:27:35.075Z,1023.34
2018-02-24T07:28:35.073Z,1023.31
2018-02-24T07:29:35.102Z,1023.26
2018-02-24T07:30:35.064Z,1023.29
2018-02-24T07:31:35.173Z,1023.32
2018-02-24T07:32:35.066Z,1023.29
2018-02-24T07:33:35.081Z,1023.31
2018-02-24T07:34:35.100Z,1023.26
2018-02-24T07:35:35.076Z,1023.31
2018-02-24T07:36:35.075Z,1023.31
2018-02-24T07:37:35.069Z,1023.27
2018-02-24T07:38:35.335Z,1023.28
2018-02-24T07:39:35.070Z,1023.27
2018-02-24T07:40:35.063Z,1023.2
2018-02-24T07:41:35.080Z,1023.27
2018-02-24T07:42:35.104Z,1023.21
2018-02-24T07:43:35.092Z,1023.24
2018-02-24T07:44:35.075Z,1023.21
2018-02-24T07:45:35.054Z,1023.21
2018-02-24T07:46:35.087Z,1023.23
2018-02-24T07:47:35.063Z,1023.28
2018-02-24T07:48:35.085Z,1023.21
2018-02-24T07:49:35.146Z,1023.27
2018-02-24T07:50:35.338Z,1023.27
2018-02-24T07:51:35.059Z,1023.27
2018-02-24T07:52:35.062Z,1023.35
2018-02-24T07:53:35.095Z,1023.3
2018-02-24T07:54:35.058Z,1023.3
2018-02-24T07:55:35.085Z,1023.31
2018-02-24T07:56:35.083Z,1023.34
2018-02-24T07:57:35.175Z,1023.23
2018-02-24T07:58:35.065Z,1023.32
2018-02-24T07:59:35.064Z,1023.47
2018-02-24T08:00:35.060Z,1023.34
2018-02-24T08:01:35.080Z,1023.42
2018-02-24T08:02:35.054Z,1023.41
2018-02-24T08:03:35.065Z,1023.42
2018-02-24T08:04:35.053Z,1023.4
2018-02-24T08:05:35.079Z,1023.46
2018-02-24T08:06:35.095Z,1023.42
2018-02-24T08:07:35.062Z,1023.44
2018-02-24T08:08:35.062Z,1023.4
2018-02-24T08:09:35.051Z,1023.48
2018-02-24T08:10:35.341Z,1023.47
2018-02-24T08:11:35.072Z,1023.46
2018-02-24T08:12:35.057Z,1023.42
2018-02-24T08:13:35.065Z,1023.52
2018-02-24T08:14:35.064Z,1023.49
2018-02-24T08:15:35.071Z,1023.53
2018-02-24T08:16:35.058Z,1023.57
2018-02-24T08:17:35.297Z,1023.48
2018-02-24T08:18:35.061Z,1023.53
2018-02-24T08:19:35.054Z,1023.51
2018-02-24T08:20:35.041Z,1023.54
2018-02-24T08:21:35.062Z,1023.57
2018-02-24T08:22:35.045Z,1023.55
2018-02-24T08:23:35.046Z,1023.53
2018-02-24T08:24:35.047Z,1023.52
2018-02-24T08:25:35.328Z,1023.45
2018-02-24T08:26:35.068Z,1023.44
2018-02-24T08:27:35.061Z,1023.47
2018-02-24T08:28:35.046Z,1023.46
2018-02-24T08:29:35.040Z,1023.55
2018-02-24T08:30:35.072Z,1023.43
2018-02-24T08:31:35.070Z,1023.56
2018-02-24T08:32:35.040Z,1023.45
2018-02-24T08:33:35.064Z,1023.46
2018-02-24T08:34:35.045Z,1023.52
2018-02-24T08:35:35.041Z,1023.51
2018-02-24T08:36:35.067Z,1023.55
2018-02-24T08:37:35.152Z,1023.48
2018-02-24T08:38:35.130Z,1023.57
2018-02-24T08:39:35.117Z,1023.53
2018-02-24T08:40:35.064Z,1023.5
2018-02-24T08:41:35.074Z,1023.46
2018-02-24T08:42:35.050Z,1023.57
2018-02-24T08:43:35.061Z,1023.5
2018-02-24T08:44:35.044Z,1023.56
2018-02-24T08:45:35.055Z,1023.5
2018-02-24T08:46:35.067Z,1023.53
2018-02-24T08:47:35.057Z,1023.59
2018-02-24T08:48:35.033Z,1023.55
2018-02-24T08:49:35.041Z,1023.53
2018-02-24T08:50:35.042Z,1023.51
2018-02-24T08:51:35.068Z,1023.55
2018-02-24T08:52:35.045Z,1023.51
2018-02-24T08:53:35.036Z,1023.52
2018-02-24T08:54:35.046Z,1023.5
2018-02-24T08:55:35.035Z,1023.58
2018-02-24T08:56:35.080Z,1023.55
2018-02-24T08:57:35.055Z,1023.61
2018-02-24T08:58:35.047Z,1023.68
2018-02-24T08:59:35.060Z,1023.62
2018-02-24T09:00:35.044Z,1023.62
2018-02-24T09:01:35.038Z,1023.62
2018-02-24T09:02:35.070Z,1023.64
2018-02-24T09:03:35.034Z,1023.57
2018-02-24T09:04:35.053Z,1023.61
2018-02-24T09:05:35.028Z,1023.55
2018-02-24T09:06:35.047Z,1023.54
2018-02-24T09:07:35.241Z,1023.57
2018-02-24T09:08:35.029Z,1023.54
2018-02-24T09:09:35.035Z,1023.48
2018-02-24T09:10:35.035Z,1023.51
2018-02-24T09:11:35.055Z,1023.53
2018-02-24T09:12:35.041Z,1023.52
2018-02-24T09:13:35.116Z,1023.59
2018-02-24T09:14:35.065Z,1023.55
2018-02-24T09:15:35.041Z,1023.54
2018-02-24T09:16:35.027Z,1023.54
2018-02-24T09:17:35.056Z,1023.5
2018-02-24T09:18:35.032Z,1023.56
2018-02-24T09:19:35.034Z,1023.51
2018-02-24T09:20:35.037Z,1023.52
2018-02-24T09:21:35.024Z,1023.5
2018-02-24T09:22:35.063Z,1023.51
2018-02-24T09:23:35.058Z,1023.5
2018-02-24T09:24:35.040Z,1023.47
2018-02-24T09:25:35.036Z,1023.51
2018-02-24T09:26:35.018Z,1023.48
2018-02-24T09:27:35.063Z,1023.49
2018-02-24T09:28:35.044Z,1023.53
2018-02-24T09:29:35.032Z,1023.55
2018-02-24T09:30:35.034Z,1023.53
2018-02-24T09:31:35.032Z,1023.47
2018-02-24T09:32:35.067Z,1023.47
2018-02-24T09:33:35.035Z,1023.5
2018-02-24T09:34:35.028Z,1023.53
2018-02-24T09:35:35.034Z,1023.45
2018-02-24T09:36:35.052Z,1023.48
2018-02-24T09:37:35.286Z,1023.56
2018-02-24T09:38:35.055Z,1023.47
2018-02-24T09:39:35.018Z,1023.47
2018-02-24T09:40:35.020Z,1023.47
2018-02-24T09:41:35.015Z,1023.48
2018-02-24T09:42:35.064Z,1023.43
2018-02-24T09:43:35.032Z,1023.47
2018-02-24T09:44:35.028Z,1023.52
2018-02-24T09:45:35.022Z,1023.45
2018-02-24T09:46:35.011Z,1023.45
2018-02-24T09:47:35.059Z,1023.44
2018-02-24T09:48:35.034Z,1023.39
2018-02-24T09:49:35.025Z,1023.45
2018-02-24T09:50:35.317Z,1023.44
2018-02-24T09:51:35.036Z,1023.38
2018-02-24T09:52:35.029Z,1023.43
2018-02-24T09:53:34.983Z,1023.39
2018-02-24T09:54:35.020Z,1023.43
2018-02-24T09:55:35.055Z,1023.4
2018-02-24T09:56:35.031Z,1023.49
2018-02-24T09:57:35.011Z,1023.49
2018-02-24T09:58:35.126Z,1023.51
2018-02-24T09:59:35.093Z,1023.53
2018-02-24T10:00:35.062Z,1023.47
2018-02-24T10:01:35.024Z,1023.53
2018-02-24T10:02:35.018Z,1023.51
2018-02-24T10:03:35.026Z,1023.43
2018-02-24T10:04:35.044Z,1023.5
2018-02-24T10:05:35.039Z,1023.51
2018-02-24T10:06:35.017Z,1023.54
2018-02-24T10:07:35.007Z,1023.49
2018-02-24T10:08:35.040Z,1023.5
2018-02-24T10:09:35.021Z,1023.55
2018-02-24T10:10:35.042Z,1023.46
2018-02-24T10:11:35.013Z,1023.47
2018-02-24T10:12:35.014Z,1023.52
2018-02-24T10:13:35.008Z,1023.41
2018-02-24T10:14:35.016Z,1023.36
2018-02-24T10:15:35.061Z,1023.38
2018-02-24T10:16:35.025Z,1023.33
2018-02-24T10:17:35.016Z,1023.33
2018-02-24T10:18:35.007Z,1023.44
2018-02-24T10:19:35.019Z,1023.35
2018-02-24T10:20:35.053Z,1023.33
2018-02-24T10:21:35.018Z,1023.34
2018-02-24T10:22:35.006Z,1023.29
2018-02-24T10:23:35.034Z,1023.27
2018-02-24T10:24:35.023Z,1023.3
2018-02-24T10:25:35.049Z,1023.27
2018-02-24T10:26:35.019Z,1023.25
2018-02-24T10:27:35.010Z,1023.3
2018-02-24T10:28:35.026Z,1023.23
2018-02-24T10:29:35.014Z,1023.23
2018-02-24T10:30:35.054Z,1023.22
2018-02-24T10:31:35.023Z,1023.25
2018-02-24T10:32:35.011Z,1023.24
2018-02-24T10:33:35.004Z,1023.23
2018-02-24T10:34:35.052Z,1023.26
2018-02-24T10:35:35.037Z,1023.28
2018-02-24T10:36:34.999Z,1023.2
2018-02-24T10:37:35.055Z,1023.15
2018-02-24T10:38:35.021Z,1023.2
2018-02-24T10:39:35.025Z,1023.18
2018-02-24T10:40:35.103Z,1023.25
2018-02-24T10:41:35.013Z,1023.23
2018-02-24T10:42:35.054Z,1023.16
2018-02-24T10:43:35.002Z,1023.23
2018-02-24T10:44:34.994Z,1023.27
2018-02-24T10:45:35.047Z,1023.28
2018-02-24T10:46:34.998Z,1023.23
2018-02-24T10:47:35.005Z,1023.31
2018-02-24T10:48:35.234Z,1023.3
2018-02-24T10:49:35.016Z,1023.24
2018-02-24T10:50:35.006Z,1023.32
2018-02-24T10:51:35.001Z,1023.22
2018-02-24T10:52:35.035Z,1023.26
2018-02-24T10:53:35.045Z,1023.21
2018-02-24T10:54:35.002Z,1023.2
2018-02-24T10:55:35.001Z,1023.14
2018-02-24T10:56:35.096Z,1023.17
2018-02-24T10:57:35.033Z,1023.11
2018-02-24T10:58:35.007Z,1023.07
2018-02-24T10:59:34.999Z,1023.05
2018-02-24T11:00:35.010Z,1023.04
2018-02-24T11:01:35.004Z,1023.01
2018-02-24T11:02:34.998Z,1023.04
2018-02-24T11:03:35.032Z,1023.03
2018-02-24T11:04:34.991Z,1023.01
2018-02-24T11:05:35.092Z,1023.08
2018-02-24T11:06:34.996Z,1023.06
2018-02-24T11:07:34.998Z,1023.01
2018-02-24T11:08:35.094Z,1022.99
2018-02-24T11:09:35.017Z,1022.92
2018-02-24T11:10:35.007Z,1022.9
2018-02-24T11:11:34.997Z,1022.92
2018-02-24T11:12:35.098Z,1022.91
2018-02-24T11:13:34.999Z,1022.8
2018-02-24T11:14:35.272Z,1022.9
2018-02-24T11:15:34.991Z,1022.86
2018-02-24T11:16:35.001Z,1022.84
2018-02-24T11:17:34.992Z,1022.8
2018-02-24T11:18:34.998Z,1022.81
2018-02-24T11:19:35.048Z,1022.76
2018-02-24T11:20:35.002Z,1022.82
2018-02-24T11:21:35.018Z,1022.76
2018-02-24T11:22:34.986Z,1022.73
2018-02-24T11:23:34.988Z,1022.78
2018-02-24T11:24:35.000Z,1022.73
2018-02-24T11:25:35.012Z,1022.75
2018-02-24T11:26:34.997Z,1022.74
2018-02-24T11:27:34.999Z,1022.75
2018-02-24T11:28:34.990Z,1022.7
2018-02-24T11:29:34.989Z,1022.75
2018-02-24T11:30:35.270Z,1022.62
2018-02-24T11:31:34.984Z,1022.62
2018-02-24T11:32:34.980Z,1022.62
2018-02-24T11:33:34.987Z,1022.57
2018-02-24T11:34:35.008Z,1022.62
2018-02-24T11:35:35.024Z,1022.53
2018-02-24T11:36:34.984Z,1022.55
2018-02-24T11:37:34.991Z,1022.58
2018-02-24T11:38:34.981Z,1022.56
2018-02-24T11:39:34.986Z,1022.57
2018-02-24T11:40:34.997Z,1022.54
2018-02-24T11:41:34.994Z,1022.51
2018-02-24T11:42:35.245Z,1022.47
2018-02-24T11:43:35.217Z,1022.46
2018-02-24T11:44:34.980Z,1022.45
2018-02-24T11:45:34.985Z,1022.44
2018-02-24T11:46:35.163Z,1022.39
2018-02-24T11:47:35.002Z,1022.38
2018-02-24T11:48:34.977Z,1022.27
2018-02-24T11:49:34.978Z,1022.26
2018-02-24T11:50:35.009Z,1022.26
2018-02-24T11:51:34.976Z,1022.24
2018-02-24T11:52:35.011Z,1022.23
2018-02-24T11:53:34.980Z,1022.21
2018-02-24T11:54:24.524Z,1022.23
2018-02-24T11:55:33.223Z,1022.25
2018-02-24T11:56:32.752Z,1022.3
2018-02-24T11:57:32.765Z,1022.23
2018-02-24T11:58:32.803Z,1022.21
2018-02-24T11:59:32.764Z,1022.23
2018-02-24T12:00:18.658Z,1022.26
2018-02-24T12:01:17.918Z,1022.23
2018-02-24T12:02:17.937Z,1022.29
2018-02-24T12:03:17.932Z,1022.21
2018-02-24T12:04:17.920Z,1022.2
2018-02-24T12:05:17.934Z,1022.23
2018-02-24T12:06:17.918Z,1022.24
2018-02-24T12:07:17.918Z,1022.24
2018-02-24T12:08:17.913Z,1022.2